createdAt,value
2022-11-28T00:01:38.089Z,31.00
2022-11-28T00:04:07.928Z,30.55
2022-11-28T00:06:41.613Z,31.45
2022-11-28T00:09:09.009Z,31.77
2022-11-28T00:11:35.887Z,33.38
2022-11-28T00:14:02.703Z,30.92
2022-11-28T00:16:29.839Z,30.90
2022-11-28T00:18:59.154Z,34.40
2022-11-28T00:21:25.966Z,31.63
2022-11-28T00:23:53.446Z,31.70
2022-11-28T00:26:20.195Z,32.28
2022-11-28T00:28:47.348Z,30.23
2022-11-28T00:31:19.681Z,30.90
2022-11-28T00:33:46.876Z,33.75
2022-11-28T00:36:14.203Z,31.27
2022-11-28T00:38:41.642Z,32.70
2022-11-28T00:41:11.655Z,33.63
2022-11-28T00:43:38.711Z,32.97
2022-11-28T00:46:05.828Z,32.80
2022-11-28T00:48:36.213Z,34.97
2022-11-28T00:51:11.632Z,34.33
2022-11-28T00:53:41.963Z,36.83
2022-11-28T00:56:11.001Z,36.50
2022-11-28T00:58:38.740Z,37.88
2022-11-28T01:01:15.509Z,35.20
2022-11-28T01:03:42.807Z,34.75
2022-11-28T01:06:11.473Z,36.67
2022-11-28T01:08:39.023Z,36.13
2022-11-28T01:11:12.868Z,36.90
2022-11-28T01:13:40.486Z,37.33
2022-11-28T01:16:08.349Z,38.78
2022-11-28T01:18:35.742Z,38.08
2022-11-28T01:21:02.690Z,35.80
2022-11-28T01:23:29.460Z,38.83
2022-11-28T01:25:56.252Z,39.45
2022-11-28T01:28:23.086Z,37.10
2022-11-28T01:30:49.937Z,37.55
2022-11-28T01:33:16.832Z,38.33
2022-11-28T01:35:43.695Z,38.45
2022-11-28T01:38:10.457Z,35.97
2022-11-28T01:40:44.104Z,36.58
2022-11-28T01:43:10.951Z,34.90
2022-11-28T01:45:38.837Z,36.25
2022-11-28T01:48:06.867Z,34.63
2022-11-28T01:50:34.991Z,35.17
2022-11-28T01:53:05.604Z,34.33
2022-11-28T01:55:39.985Z,43.55
2022-11-28T01:58:07.124Z,41.30
2022-11-28T02:00:34.865Z,39.60
2022-11-28T02:03:10.290Z,39.22
2022-11-28T02:05:37.475Z,36.45
2022-11-28T02:08:05.465Z,35.40
2022-11-28T02:11:05.395Z,35.28
2022-11-28T02:13:57.571Z,36.40
2022-11-28T02:16:50.062Z,38.60
2022-11-28T02:19:48.411Z,36.05
2022-11-28T02:22:29.221Z,37.55
2022-11-28T02:25:16.881Z,35.15
2022-11-28T02:28:02.020Z,35.33
2022-11-28T02:30:58.552Z,34.80
2022-11-28T02:33:52.616Z,36.65
2022-11-28T02:36:33.433Z,34.42
2022-11-28T02:39:12.673Z,34.13
2022-11-28T02:41:47.868Z,33.55
2022-11-28T02:44:38.109Z,35.03
2022-11-28T02:47:27.305Z,31.42
2022-11-28T02:50:22.239Z,32.72
2022-11-28T02:53:03.544Z,32.40
2022-11-28T02:55:31.125Z,34.00
2022-11-28T02:57:57.858Z,34.22
2022-11-28T03:00:34.151Z,33.40
2022-11-28T03:03:35.736Z,33.95
2022-11-28T03:06:33.058Z,31.02
2022-11-28T03:09:18.805Z,29.48
2022-11-28T03:12:04.069Z,30.48
2022-11-28T03:14:49.357Z,30.85
2022-11-28T03:17:21.828Z,28.30
2022-11-28T03:20:02.017Z,31.75
2022-11-28T03:22:38.639Z,27.52
2022-11-28T03:25:27.019Z,27.67
2022-11-28T03:28:08.887Z,27.80
2022-11-28T03:30:46.175Z,29.55
2022-11-28T03:33:16.290Z,29.90
2022-11-28T03:35:51.550Z,28.42
2022-11-28T03:38:27.719Z,26.08
2022-11-28T03:40:58.700Z,27.67
2022-11-28T03:43:32.952Z,27.48
2022-11-28T03:46:04.522Z,27.15
2022-11-28T03:48:35.309Z,27.23
2022-11-28T03:51:17.591Z,26.02
2022-11-28T03:54:02.958Z,24.90
2022-11-28T03:56:44.844Z,27.25
2022-11-28T03:59:20.379Z,25.33
2022-11-28T04:02:16.663Z,25.10
2022-11-28T04:05:09.481Z,24.98
2022-11-28T04:08:13.686Z,26.42
2022-11-28T04:13:23.878Z,25.17
2022-11-28T04:16:04.510Z,25.58
2022-11-28T04:18:53.832Z,25.50
2022-11-28T04:21:29.631Z,25.65
2022-11-28T04:24:01.378Z,26.35
2022-11-28T04:26:36.384Z,28.02
2022-11-28T04:29:09.849Z,25.95
2022-11-28T04:31:39.559Z,25.48
2022-11-28T04:34:09.654Z,26.77
2022-11-28T04:36:39.389Z,27.17
2022-11-28T04:39:10.231Z,25.58
2022-11-28T04:42:04.130Z,28.88
2022-11-28T04:44:51.181Z,24.92
2022-11-28T04:47:18.603Z,25.85
2022-11-28T04:49:45.624Z,25.67
2022-11-28T04:52:36.813Z,25.13
2022-11-28T04:55:09.088Z,25.17
2022-11-28T04:58:09.107Z,26.42
2022-11-28T05:00:38.116Z,25.67
2022-11-28T05:03:06.045Z,25.13
2022-11-28T05:05:41.878Z,28.08
2022-11-28T05:08:08.587Z,25.80
2022-11-28T05:10:35.412Z,26.95
2022-11-28T05:13:02.164Z,27.65
2022-11-28T05:15:28.897Z,28.52
2022-11-28T05:17:55.580Z,29.08
2022-11-28T05:20:22.341Z,26.75
2022-11-28T05:22:49.079Z,29.13
2022-11-28T05:25:16.265Z,28.90
2022-11-28T05:27:44.902Z,26.63
2022-11-28T05:30:12.475Z,28.38
2022-11-28T05:32:39.326Z,26.90
2022-11-28T05:35:06.462Z,28.10
2022-11-28T05:37:33.723Z,28.40
2022-11-28T05:40:00.585Z,27.42
2022-11-28T05:42:28.569Z,27.63
2022-11-28T05:44:56.173Z,28.75
2022-11-28T05:47:23.977Z,28.65
2022-11-28T05:49:51.038Z,26.60
2022-11-28T05:52:17.895Z,28.48
2022-11-28T05:54:44.664Z,27.20
2022-11-28T05:57:11.418Z,27.05
2022-11-28T05:59:38.143Z,30.73
2022-11-28T06:02:04.981Z,27.50
2022-11-28T06:04:31.910Z,27.45
2022-11-28T06:06:58.714Z,28.50
2022-11-28T06:09:26.173Z,28.92
2022-11-28T06:11:53.204Z,30.25
2022-11-28T06:14:20.155Z,30.95
2022-11-28T06:16:47.052Z,33.65
2022-11-28T06:19:15.432Z,35.83
2022-11-28T06:21:42.506Z,37.10
2022-11-28T06:24:11.033Z,34.97
2022-11-28T06:26:37.875Z,32.50
2022-11-28T06:29:04.733Z,32.03
2022-11-28T06:31:31.825Z,29.45
2022-11-28T06:34:00.090Z,27.42
2022-11-28T06:36:27.600Z,26.98
2022-11-28T06:38:54.655Z,27.48
2022-11-28T06:41:24.461Z,27.52
2022-11-28T06:43:51.279Z,24.02
2022-11-28T06:46:20.568Z,23.70
2022-11-28T06:48:49.382Z,23.88
2022-11-28T06:51:16.665Z,25.15
2022-11-28T06:53:43.686Z,22.83
2022-11-28T06:56:14.259Z,22.48
2022-11-28T06:58:42.223Z,24.30
2022-11-28T07:01:10.813Z,23.23
2022-11-28T07:03:38.748Z,21.23
2022-11-28T07:06:06.382Z,22.90
2022-11-28T07:08:33.728Z,21.05
2022-11-28T07:11:08.444Z,21.50
2022-11-28T07:13:35.397Z,21.25
2022-11-28T07:16:02.165Z,20.17
2022-11-28T07:18:28.923Z,19.42
2022-11-28T07:20:55.721Z,21.73
2022-11-28T07:23:22.581Z,19.08
2022-11-28T07:25:49.472Z,20.10
2022-11-28T07:28:20.594Z,18.70
2022-11-28T07:30:49.865Z,18.52
2022-11-28T07:33:16.802Z,18.83
2022-11-28T07:35:43.661Z,17.60
2022-11-28T07:38:10.427Z,18.00
2022-11-28T07:40:37.299Z,17.42
2022-11-28T07:43:04.023Z,17.63
2022-11-28T07:45:47.439Z,16.13
2022-11-28T07:48:17.682Z,17.85
2022-11-28T07:50:44.426Z,17.27
2022-11-28T07:53:11.319Z,15.55
2022-11-28T07:55:38.173Z,16.58
2022-11-28T07:58:05.690Z,18.00
2022-11-28T08:00:33.176Z,16.88
2022-11-28T08:03:00.302Z,16.73
2022-11-28T08:05:27.252Z,15.18
2022-11-28T08:07:54.140Z,15.77
2022-11-28T08:10:21.041Z,16.95
2022-11-28T08:12:47.904Z,17.20
2022-11-28T08:15:14.677Z,16.60
2022-11-28T08:17:44.223Z,17.55
2022-11-28T08:20:11.403Z,17.95
2022-11-28T08:22:38.298Z,15.80
2022-11-28T08:25:05.382Z,16.23
2022-11-28T08:27:33.090Z,15.43
2022-11-28T08:29:59.983Z,16.45
2022-11-28T08:32:29.000Z,17.35
2022-11-28T08:34:55.780Z,16.20
2022-11-28T08:37:22.603Z,16.60
2022-11-28T08:39:49.385Z,15.95
2022-11-28T08:42:16.080Z,16.73
2022-11-28T08:45:06.519Z,16.48
2022-11-28T08:47:33.570Z,16.10
2022-11-28T08:50:00.552Z,16.85
2022-11-28T08:52:27.384Z,16.13
2022-11-28T08:54:54.657Z,15.45
2022-11-28T08:57:21.476Z,18.17
2022-11-28T08:59:48.265Z,17.63
2022-11-28T09:02:15.028Z,17.35
2022-11-28T09:04:42.011Z,19.25
2022-11-28T09:07:08.760Z,18.20
2022-11-28T09:09:35.588Z,18.92
2022-11-28T09:12:02.318Z,16.95
2022-11-28T09:14:29.081Z,16.83
2022-11-28T09:16:56.078Z,18.08
2022-11-28T09:19:23.940Z,17.67
2022-11-28T09:21:56.175Z,16.65
2022-11-28T09:24:24.690Z,16.80
2022-11-28T09:26:51.531Z,15.70
2022-11-28T09:29:18.360Z,15.27
2022-11-28T09:31:47.555Z,15.90
2022-11-28T09:34:14.796Z,14.63
2022-11-28T09:36:41.990Z,15.45
2022-11-28T09:39:08.851Z,14.30
2022-11-28T09:42:01.222Z,15.60
2022-11-28T09:44:45.481Z,14.00
2022-11-28T09:47:26.269Z,15.60
2022-11-28T09:50:03.728Z,15.98
2022-11-28T09:52:58.403Z,15.27
2022-11-28T09:55:34.242Z,14.57
2022-11-28T09:58:06.368Z,15.23
2022-11-28T10:00:37.763Z,13.07
2022-11-28T10:03:16.626Z,13.43
2022-11-28T10:05:55.872Z,13.88
2022-11-28T10:09:14.812Z,12.35
2022-11-28T10:12:26.643Z,12.70
2022-11-28T10:15:10.862Z,12.75
2022-11-28T10:18:06.044Z,13.05
2022-11-28T10:20:43.533Z,14.45
2022-11-28T10:23:24.136Z,15.50
2022-11-28T10:26:00.684Z,13.75
2022-11-28T10:28:32.361Z,12.45
2022-11-28T10:31:21.261Z,12.60
2022-11-28T10:33:56.152Z,13.32
2022-11-28T10:36:34.668Z,13.07
2022-11-28T10:39:13.082Z,13.05
2022-11-28T10:42:13.815Z,12.73
2022-11-28T10:45:06.528Z,12.70
2022-11-28T10:48:38.627Z,13.20
2022-11-28T10:51:07.906Z,12.75
2022-11-28T10:53:37.631Z,12.40
2022-11-28T10:56:38.972Z,12.73
2022-11-28T10:59:21.590Z,12.95
2022-11-28T11:01:51.312Z,13.32
2022-11-28T11:04:27.443Z,12.93
2022-11-28T11:07:17.972Z,13.15
2022-11-28T11:09:47.666Z,12.65
2022-11-28T11:12:26.070Z,14.38
2022-11-28T11:14:52.981Z,12.48
2022-11-28T11:17:36.537Z,12.80
2022-11-28T11:20:18.996Z,12.27
2022-11-28T11:22:55.884Z,12.57
2022-11-28T11:25:24.956Z,12.30
2022-11-28T11:27:57.636Z,13.45
2022-11-28T11:30:34.302Z,12.60
2022-11-28T11:33:03.793Z,11.45
2022-11-28T11:35:35.059Z,12.88
2022-11-28T11:38:37.796Z,12.15
2022-11-28T11:41:31.795Z,12.40
2022-11-28T11:44:29.273Z,12.07
2022-11-28T11:47:01.887Z,12.07
2022-11-28T11:49:39.343Z,13.77
2022-11-28T11:52:28.099Z,13.23
2022-11-28T11:55:20.501Z,13.85
2022-11-28T11:57:52.874Z,12.68
2022-11-28T12:00:35.269Z,12.50
2022-11-28T12:03:14.942Z,14.02
2022-11-28T12:06:13.188Z,15.65
2022-11-28T12:08:53.689Z,14.88
2022-11-28T12:11:35.960Z,16.02
2022-11-28T12:14:25.975Z,14.50
2022-11-28T12:17:32.941Z,15.18
2022-11-28T12:20:10.531Z,13.65
2022-11-28T12:22:59.277Z,14.45
2022-11-28T12:25:49.339Z,16.35
2022-11-28T12:28:44.107Z,17.40
2022-11-28T12:31:16.285Z,14.40
2022-11-28T12:34:20.528Z,18.90
2022-11-28T12:39:29.394Z,13.93
2022-11-28T12:42:02.333Z,12.52
2022-11-28T12:44:52.447Z,12.63
2022-11-28T12:47:56.992Z,13.23
2022-11-28T12:50:46.568Z,13.13
2022-11-28T12:53:16.640Z,13.15
2022-11-28T12:56:14.959Z,13.93
2022-11-28T12:58:53.504Z,14.93
2022-11-28T13:01:29.654Z,14.13
2022-11-28T13:03:59.522Z,13.30
2022-11-28T13:06:31.984Z,13.63
2022-11-28T13:09:31.093Z,14.23
2022-11-28T13:12:27.185Z,12.68
2022-11-28T13:15:37.611Z,13.27
2022-11-28T13:18:28.145Z,11.38
2022-11-28T13:21:32.248Z,13.55
2022-11-28T13:26:45.810Z,11.40
2022-11-28T13:29:42.536Z,12.02
2022-11-28T13:32:17.926Z,13.02
2022-11-28T13:34:45.743Z,11.50
2022-11-28T13:40:25.780Z,13.57
2022-11-28T13:43:37.292Z,13.50
2022-11-28T13:46:06.790Z,14.32
2022-11-28T13:51:33.432Z,14.00
2022-11-28T13:54:27.159Z,13.57
2022-11-28T13:57:21.609Z,14.13
2022-11-28T14:00:13.353Z,13.13
2022-11-28T14:02:47.654Z,12.45
2022-11-28T14:05:34.426Z,14.27
2022-11-28T14:08:03.269Z,14.70
2022-11-28T14:11:08.504Z,13.75
2022-11-28T14:14:16.889Z,15.20
2022-11-28T14:17:25.089Z,14.57
2022-11-28T14:20:18.218Z,15.18
2022-11-28T14:23:20.217Z,15.13
2022-11-28T14:25:50.575Z,14.93
2022-11-28T14:28:37.019Z,14.98
2022-11-28T14:31:39.754Z,14.55
2022-11-28T14:34:31.498Z,14.00
2022-11-28T14:37:27.220Z,15.55
2022-11-28T14:39:56.554Z,14.98
2022-11-28T14:45:46.417Z,16.02
2022-11-28T14:48:31.181Z,16.40
2022-11-28T14:51:02.217Z,17.10
2022-11-28T14:53:44.324Z,16.70
2022-11-28T14:56:14.826Z,16.33
2022-11-28T14:58:47.917Z,17.65
2022-11-28T15:03:50.024Z,16.38
2022-11-28T15:06:34.597Z,16.02
2022-11-28T15:09:13.632Z,16.67
2022-11-28T15:12:05.048Z,18.25
2022-11-28T15:14:34.715Z,16.60
2022-11-28T15:17:05.754Z,18.33
2022-11-28T15:19:54.047Z,18.67
2022-11-28T15:22:40.927Z,18.13
2022-11-28T15:25:23.461Z,18.17
2022-11-28T15:27:51.174Z,19.42
2022-11-28T15:30:21.724Z,18.52
2022-11-28T15:32:48.859Z,19.48
2022-11-28T15:35:19.609Z,20.02
2022-11-28T15:37:57.319Z,19.98
2022-11-28T15:40:33.608Z,19.90
2022-11-28T15:43:09.397Z,18.67
2022-11-28T15:45:42.303Z,20.85
2022-11-28T15:48:39.400Z,20.27
2022-11-28T15:51:08.478Z,22.38
2022-11-28T15:53:42.401Z,20.85
2022-11-28T15:56:09.494Z,21.98
2022-11-28T15:58:37.078Z,21.95
2022-11-28T16:01:21.688Z,21.55
2022-11-28T16:04:14.771Z,20.48
2022-11-28T16:06:45.562Z,21.05
2022-11-28T16:09:19.786Z,21.13
2022-11-28T16:11:49.634Z,20.23
2022-11-28T16:14:26.053Z,20.13
2022-11-28T16:16:53.056Z,21.38
2022-11-28T16:19:37.999Z,21.98
2022-11-28T16:22:09.345Z,22.67
2022-11-28T16:24:50.830Z,20.13
2022-11-28T16:27:32.027Z,20.85
2022-11-28T16:29:58.967Z,20.10
2022-11-28T16:32:40.444Z,21.35
2022-11-28T16:35:12.515Z,20.73
2022-11-28T16:37:39.902Z,21.60
2022-11-28T16:40:14.252Z,20.52
2022-11-28T16:42:41.748Z,20.42
2022-11-28T16:45:21.659Z,22.30
2022-11-28T16:48:26.895Z,22.15
2022-11-28T16:51:11.190Z,20.67
2022-11-28T16:53:53.355Z,21.90
2022-11-28T16:56:44.553Z,23.15
2022-11-28T16:59:16.563Z,22.45
2022-11-28T17:01:48.515Z,21.50
2022-11-28T17:04:28.095Z,22.40
2022-11-28T17:06:57.380Z,22.17
2022-11-28T17:09:25.026Z,22.65
2022-11-28T17:12:03.905Z,23.00
2022-11-28T17:14:31.064Z,22.65
2022-11-28T17:16:57.749Z,23.63
2022-11-28T17:19:24.884Z,25.05
2022-11-28T17:21:56.771Z,24.70
2022-11-28T17:24:32.007Z,22.63
2022-11-28T17:26:58.841Z,25.77
2022-11-28T17:29:25.776Z,25.83
2022-11-28T17:31:55.203Z,27.67
2022-11-28T17:34:24.581Z,24.23
2022-11-28T17:36:51.860Z,25.63
2022-11-28T17:39:19.843Z,29.83
2022-11-28T17:41:47.343Z,27.20
2022-11-28T17:44:27.324Z,26.95
2022-11-28T17:46:55.738Z,28.10
2022-11-28T17:49:23.159Z,27.15
2022-11-28T17:51:54.892Z,26.90
2022-11-28T17:54:24.973Z,26.88
2022-11-28T17:56:54.044Z,26.27
2022-11-28T17:59:23.414Z,28.60
2022-11-28T18:01:50.920Z,30.05
2022-11-28T18:04:23.450Z,28.17
2022-11-28T18:06:50.211Z,28.42
2022-11-28T18:09:17.235Z,27.25
2022-11-28T18:11:46.504Z,26.15
2022-11-28T18:14:13.936Z,25.55
2022-11-28T18:16:43.929Z,26.48
2022-11-28T18:19:11.125Z,27.42
2022-11-28T18:21:38.962Z,25.33
2022-11-28T18:24:06.208Z,24.48
2022-11-28T18:26:33.176Z,24.58
2022-11-28T18:28:59.938Z,26.35
2022-11-28T18:31:29.487Z,25.63
2022-11-28T18:34:01.980Z,24.85
2022-11-28T18:36:34.751Z,24.65
2022-11-28T18:39:04.975Z,26.40
2022-11-28T18:41:32.559Z,24.23
2022-11-28T18:44:04.737Z,24.25
2022-11-28T18:46:32.953Z,24.60
2022-11-28T18:49:00.484Z,24.13
2022-11-28T18:51:30.080Z,25.10
2022-11-28T18:53:58.069Z,25.20
2022-11-28T18:56:26.295Z,24.92
2022-11-28T18:58:54.798Z,25.48
2022-11-28T19:01:30.185Z,24.95
2022-11-28T19:04:02.618Z,26.05
2022-11-28T19:06:30.872Z,27.15
2022-11-28T19:09:00.403Z,26.80
2022-11-28T19:11:31.037Z,27.95
2022-11-28T19:13:58.506Z,27.30
2022-11-28T19:16:26.834Z,25.33
2022-11-28T19:18:55.788Z,25.45
2022-11-28T19:21:27.575Z,27.55
2022-11-28T19:23:57.836Z,25.55
2022-11-28T19:26:27.044Z,26.50
2022-11-28T19:28:54.220Z,24.60
2022-11-28T19:31:24.207Z,27.45
2022-11-28T19:34:01.150Z,26.17
2022-11-28T19:36:32.911Z,26.33
2022-11-28T19:39:00.802Z,26.70
2022-11-28T19:41:29.376Z,27.88
2022-11-28T19:43:56.400Z,28.92
2022-11-28T19:46:23.605Z,30.00
2022-11-28T19:48:51.885Z,27.65
2022-11-28T19:51:20.331Z,29.55
2022-11-28T19:53:47.195Z,29.13
2022-11-28T19:56:17.482Z,30.83
2022-11-28T19:58:45.254Z,30.35
2022-11-28T20:01:18.675Z,32.78
2022-11-28T20:03:47.861Z,29.98
2022-11-28T20:06:21.387Z,27.75
2022-11-28T20:09:01.355Z,30.25
2022-11-28T20:11:32.452Z,27.65
2022-11-28T20:14:14.856Z,25.25
2022-11-28T20:16:41.938Z,26.23
2022-11-28T20:19:11.406Z,27.52
2022-11-28T20:21:38.606Z,28.58
2022-11-28T20:24:08.292Z,26.35
2022-11-28T20:26:39.075Z,25.55
2022-11-28T20:29:07.508Z,25.98
2022-11-28T20:31:42.054Z,24.77
2022-11-28T20:34:09.269Z,24.17
2022-11-28T20:36:36.448Z,22.60
2022-11-28T20:39:05.154Z,22.10
2022-11-28T20:41:32.236Z,21.90
2022-11-28T20:44:02.057Z,21.17
2022-11-28T20:46:31.517Z,23.98
2022-11-28T20:49:00.403Z,22.40
2022-11-28T20:51:29.014Z,20.80
2022-11-28T20:53:57.252Z,21.42
2022-11-28T20:56:26.399Z,22.02
2022-11-28T20:58:53.362Z,20.52
2022-11-28T21:01:23.113Z,21.73
2022-11-28T21:03:53.616Z,21.48
2022-11-28T21:06:21.018Z,21.52
2022-11-28T21:08:47.981Z,22.02
2022-11-28T21:11:55.203Z,22.85
2022-11-28T21:14:10.361Z,21.85
2022-11-28T21:16:37.132Z,21.60
2022-11-28T21:19:07.587Z,21.63
2022-11-28T21:21:35.725Z,24.00
2022-11-28T21:24:12.237Z,21.13
2022-11-28T21:26:44.180Z,23.13
2022-11-28T21:29:14.842Z,23.80
2022-11-28T21:31:44.065Z,22.85
2022-11-28T21:34:16.637Z,23.02
2022-11-28T21:36:44.558Z,23.48
2022-11-28T21:39:14.520Z,22.65
2022-11-28T21:41:41.391Z,23.10
2022-11-28T21:44:08.831Z,24.98
2022-11-28T21:46:35.861Z,25.10
2022-11-28T21:49:02.758Z,22.75
2022-11-28T21:51:29.615Z,23.88
2022-11-28T21:54:00.098Z,23.55
2022-11-28T21:56:27.208Z,24.60
2022-11-28T21:58:54.772Z,23.33
2022-11-28T22:01:22.220Z,22.58
2022-11-28T22:03:49.211Z,21.35
2022-11-28T22:06:20.090Z,22.40
2022-11-28T22:08:48.965Z,23.15
2022-11-28T22:11:16.460Z,22.95
2022-11-28T22:13:46.005Z,21.90
2022-11-28T22:16:24.557Z,22.25
2022-11-28T22:18:53.350Z,21.98
2022-11-28T22:24:08.219Z,23.23
2022-11-28T22:26:35.172Z,23.75
2022-11-28T22:29:04.202Z,22.77
2022-11-28T22:31:31.907Z,21.60
2022-11-28T22:33:58.985Z,21.40
2022-11-28T22:36:25.893Z,23.13
2022-11-28T22:38:58.980Z,22.33
2022-11-28T22:41:29.236Z,21.88
2022-11-28T22:44:00.661Z,19.73
2022-11-28T22:46:28.603Z,21.27
2022-11-28T22:48:58.702Z,20.35
2022-11-28T22:51:26.564Z,20.23
2022-11-28T22:53:55.574Z,21.15
2022-11-28T22:56:24.623Z,21.40
2022-11-28T22:58:53.679Z,20.60
2022-11-28T23:01:24.446Z,20.38
2022-11-28T23:03:52.496Z,20.15
2022-11-28T23:06:22.242Z,20.80
2022-11-28T23:08:55.726Z,20.27
2022-11-28T23:11:26.490Z,20.23
2022-11-28T23:13:54.049Z,21.30
2022-11-28T23:16:21.206Z,21.58
2022-11-28T23:18:50.903Z,22.02
2022-11-28T23:21:19.160Z,21.73
2022-11-28T23:23:46.245Z,20.52
2022-11-28T23:26:16.034Z,21.27
2022-11-28T23:28:45.574Z,21.63
2022-11-28T23:31:18.873Z,19.92
2022-11-28T23:36:22.791Z,19.17
2022-11-28T23:38:51.943Z,20.58
2022-11-28T23:41:19.603Z,20.83
2022-11-28T23:43:46.926Z,20.17
2022-11-28T23:46:15.460Z,21.38
2022-11-28T23:48:43.793Z,19.95
2022-11-28T23:51:12.970Z,20.65
2022-11-28T23:53:40.500Z,20.58
2022-11-28T23:56:12.798Z,19.17
2022-11-28T23:58:40.218Z,20.77
